sensor_id;sensor_type;location;lat;lon;timestamp;P1;durP1;ratioP1;P2;durP2;ratioP2
6626;SDS011;3349;49.830;8.748;2024-01-16T00:02:16;10.67;;;4.03;;
6626;SDS011;3349;49.830;8.748;2024-01-16T00:04:43;9.20;;;4.30;;
6626;SDS011;3349;49.830;8.748;2024-01-16T00:07:11;7.67;;;4.30;;
6626;SDS011;3349;49.830;8.748;2024-01-16T00:09:38;8.90;;;4.30;;
6626;SDS011;3349;49.830;8.748;2024-01-16T00:12:05;7.73;;;3.90;;
6626;SDS011;3349;49.830;8.748;2024-01-16T00:14:34;8.57;;;4.30;;
6626;SDS011;3349;49.830;8.748;2024-01-16T00:17:02;6.43;;;4.03;;
6626;SDS011;3349;49.830;8.748;2024-01-16T00:19:29;6.67;;;3.97;;
6626;SDS011;3349;49.830;8.748;2024-01-16T00:21:55;8.63;;;3.97;;
6626;SDS011;3349;49.830;8.748;2024-01-16T00:24:23;8.47;;;3.60;;
6626;SDS011;3349;49.830;8.748;2024-01-16T00:26:50;6.63;;;4.10;;
6626;SDS011;3349;49.830;8.748;2024-01-16T00:29:17;6.07;;;4.07;;
6626;SDS011;3349;49.830;8.748;2024-01-16T00:31:43;9.93;;;3.80;;
6626;SDS011;3349;49.830;8.748;2024-01-16T00:34:10;6.83;;;4.00;;
6626;SDS011;3349;49.830;8.748;2024-01-16T00:36:36;6.60;;;4.27;;
6626;SDS011;3349;49.830;8.748;2024-01-16T00:39:03;8.63;;;4.60;;
6626;SDS011;3349;49.830;8.748;2024-01-16T00:41:31;11.37;;;4.77;;
6626;SDS011;3349;49.830;8.748;2024-01-16T00:43:58;7.37;;;4.27;;
6626;SDS011;3349;49.830;8.748;2024-01-16T00:46:24;11.07;;;4.40;;
6626;SDS011;3349;49.830;8.748;2024-01-16T00:48:51;14.93;;;4.60;;
6626;SDS011;3349;49.830;8.748;2024-01-16T00:51:18;9.03;;;4.23;;
6626;SDS011;3349;49.830;8.748;2024-01-16T00:53:44;12.17;;;4.77;;
6626;SDS011;3349;49.830;8.748;2024-01-16T00:56:11;7.23;;;4.33;;
6626;SDS011;3349;49.830;8.748;2024-01-16T00:58:39;9.70;;;3.93;;
6626;SDS011;3349;49.830;8.748;2024-01-16T01:01:06;6.70;;;4.10;;
6626;SDS011;3349;49.830;8.748;2024-01-16T01:03:33;8.43;;;3.87;;
6626;SDS011;3349;49.830;8.748;2024-01-16T01:05:59;9.27;;;4.03;;
6626;SDS011;3349;49.830;8.748;2024-01-16T01:08:26;7.97;;;4.60;;
6626;SDS011;3349;49.830;8.748;2024-01-16T01:10:53;9.43;;;4.03;;
6626;SDS011;3349;49.830;8.748;2024-01-16T01:13:20;6.77;;;3.93;;
6626;SDS011;3349;49.830;8.748;2024-01-16T01:15:48;8.03;;;4.03;;
6626;SDS011;3349;49.830;8.748;2024-01-16T01:18:14;8.20;;;4.43;;
6626;SDS011;3349;49.830;8.748;2024-01-16T01:20:41;10.47;;;4.93;;
6626;SDS011;3349;49.830;8.748;2024-01-16T01:23:08;8.13;;;5.07;;
6626;SDS011;3349;49.830;8.748;2024-01-16T01:25:36;8.17;;;5.07;;
6626;SDS011;3349;49.830;8.748;2024-01-16T01:28:03;7.37;;;4.83;;
6626;SDS011;3349;49.830;8.748;2024-01-16T01:30:31;8.87;;;5.00;;
6626;SDS011;3349;49.830;8.748;2024-01-16T01:32:59;8.63;;;4.83;;
6626;SDS011;3349;49.830;8.748;2024-01-16T01:35:25;11.37;;;5.37;;
6626;SDS011;3349;49.830;8.748;2024-01-16T01:37:52;7.40;;;4.70;;
6626;SDS011;3349;49.830;8.748;2024-01-16T01:40:19;8.97;;;5.10;;
6626;SDS011;3349;49.830;8.748;2024-01-16T01:42:46;13.17;;;5.33;;
6626;SDS011;3349;49.830;8.748;2024-01-16T01:45:13;12.37;;;5.23;;
6626;SDS011;3349;49.830;8.748;2024-01-16T01:47:40;10.77;;;5.40;;
6626;SDS011;3349;49.830;8.748;2024-01-16T01:50:09;12.60;;;5.77;;
6626;SDS011;3349;49.830;8.748;2024-01-16T01:52:37;16.20;;;6.13;;
6626;SDS011;3349;49.830;8.748;2024-01-16T01:55:05;10.33;;;5.33;;
6626;SDS011;3349;49.830;8.748;2024-01-16T01:57:36;10.47;;;5.23;;
6626;SDS011;3349;49.830;8.748;2024-01-16T02:00:03;12.57;;;5.50;;
6626;SDS011;3349;49.830;8.748;2024-01-16T02:02:31;12.60;;;5.70;;
6626;SDS011;3349;49.830;8.748;2024-01-16T02:04:58;9.80;;;5.43;;
6626;SDS011;3349;49.830;8.748;2024-01-16T02:07:27;11.77;;;5.57;;
6626;SDS011;3349;49.830;8.748;2024-01-16T02:09:54;13.30;;;5.53;;
6626;SDS011;3349;49.830;8.748;2024-01-16T02:12:21;9.47;;;4.90;;
6626;SDS011;3349;49.830;8.748;2024-01-16T02:14:48;10.67;;;5.63;;
6626;SDS011;3349;49.830;8.748;2024-01-16T02:17:15;11.83;;;6.13;;
6626;SDS011;3349;49.830;8.748;2024-01-16T02:19:43;8.50;;;5.00;;
6626;SDS011;3349;49.830;8.748;2024-01-16T02:22:10;8.20;;;5.00;;
6626;SDS011;3349;49.830;8.748;2024-01-16T02:24:43;10.67;;;5.83;;
6626;SDS011;3349;49.830;8.748;2024-01-16T02:27:10;13.13;;;6.10;;
6626;SDS011;3349;49.830;8.748;2024-01-16T02:29:40;13.73;;;6.30;;
6626;SDS011;3349;49.830;8.748;2024-01-16T02:32:07;10.67;;;5.47;;
6626;SDS011;3349;49.830;8.748;2024-01-16T02:34:34;9.60;;;5.60;;
6626;SDS011;3349;49.830;8.748;2024-01-16T02:37:00;16.13;;;5.90;;
6626;SDS011;3349;49.830;8.748;2024-01-16T02:39:27;11.40;;;6.00;;
6626;SDS011;3349;49.830;8.748;2024-01-16T02:41:55;8.77;;;5.23;;
6626;SDS011;3349;49.830;8.748;2024-01-16T02:44:22;15.50;;;5.80;;
6626;SDS011;3349;49.830;8.748;2024-01-16T02:46:49;12.30;;;6.13;;
6626;SDS011;3349;49.830;8.748;2024-01-16T02:49:16;11.20;;;5.63;;
6626;SDS011;3349;49.830;8.748;2024-01-16T02:51:42;12.83;;;6.17;;
6626;SDS011;3349;49.830;8.748;2024-01-16T02:54:09;11.70;;;6.17;;
6626;SDS011;3349;49.830;8.748;2024-01-16T02:56:37;10.30;;;6.40;;
6626;SDS011;3349;49.830;8.748;2024-01-16T02:59:05;10.97;;;5.60;;
6626;SDS011;3349;49.830;8.748;2024-01-16T03:01:31;11.30;;;6.07;;
6626;SDS011;3349;49.830;8.748;2024-01-16T03:03:58;10.47;;;6.27;;
6626;SDS011;3349;49.830;8.748;2024-01-16T03:06:25;9.57;;;5.63;;
6626;SDS011;3349;49.830;8.748;2024-01-16T03:08:53;11.67;;;6.10;;
6626;SDS011;3349;49.830;8.748;2024-01-16T03:11:20;11.60;;;5.77;;
6626;SDS011;3349;49.830;8.748;2024-01-16T03:13:46;10.60;;;6.00;;
6626;SDS011;3349;49.830;8.748;2024-01-16T03:16:16;13.47;;;6.70;;
6626;SDS011;3349;49.830;8.748;2024-01-16T03:18:42;11.60;;;6.43;;
6626;SDS011;3349;49.830;8.748;2024-01-16T03:21:10;13.57;;;7.97;;
6626;SDS011;3349;49.830;8.748;2024-01-16T03:23:37;9.83;;;6.20;;
6626;SDS011;3349;49.830;8.748;2024-01-16T03:26:03;13.50;;;6.53;;
6626;SDS011;3349;49.830;8.748;2024-01-16T03:28:30;11.60;;;6.13;;
6626;SDS011;3349;49.830;8.748;2024-01-16T03:30:57;11.60;;;6.07;;
6626;SDS011;3349;49.830;8.748;2024-01-16T03:33:25;9.73;;;5.63;;
6626;SDS011;3349;49.830;8.748;2024-01-16T03:35:51;12.27;;;6.10;;
6626;SDS011;3349;49.830;8.748;2024-01-16T03:38:18;14.70;;;5.83;;
6626;SDS011;3349;49.830;8.748;2024-01-16T03:40:45;10.97;;;5.73;;
6626;SDS011;3349;49.830;8.748;2024-01-16T03:43:11;10.50;;;5.87;;
6626;SDS011;3349;49.830;8.748;2024-01-16T03:45:38;12.07;;;6.10;;
6626;SDS011;3349;49.830;8.748;2024-01-16T03:48:05;16.17;;;6.47;;
6626;SDS011;3349;49.830;8.748;2024-01-16T03:50:33;10.03;;;5.23;;
6626;SDS011;3349;49.830;8.748;2024-01-16T03:53:01;9.37;;;5.23;;
6626;SDS011;3349;49.830;8.748;2024-01-16T03:55:28;12.63;;;5.97;;
6626;SDS011;3349;49.830;8.748;2024-01-16T03:57:55;10.50;;;5.40;;
6626;SDS011;3349;49.830;8.748;2024-01-16T04:00:22;10.40;;;5.20;;
6626;SDS011;3349;49.830;8.748;2024-01-16T04:02:48;11.13;;;4.87;;
6626;SDS011;3349;49.830;8.748;2024-01-16T04:05:15;9.73;;;5.10;;
6626;SDS011;3349;49.830;8.748;2024-01-16T04:07:43;11.00;;;5.13;;
6626;SDS011;3349;49.830;8.748;2024-01-16T04:10:10;10.70;;;5.27;;
6626;SDS011;3349;49.830;8.748;2024-01-16T04:12:37;10.07;;;4.80;;
6626;SDS011;3349;49.830;8.748;2024-01-16T04:15:03;10.33;;;5.13;;
6626;SDS011;3349;49.830;8.748;2024-01-16T04:17:31;12.70;;;4.90;;
6626;SDS011;3349;49.830;8.748;2024-01-16T04:19:57;8.30;;;5.37;;
6626;SDS011;3349;49.830;8.748;2024-01-16T04:22:24;9.27;;;5.57;;
6626;SDS011;3349;49.830;8.748;2024-01-16T04:27:34;11.97;;;4.97;;
6626;SDS011;3349;49.830;8.748;2024-01-16T04:30:01;11.83;;;5.23;;
6626;SDS011;3349;49.830;8.748;2024-01-16T04:32:28;7.90;;;5.13;;
6626;SDS011;3349;49.830;8.748;2024-01-16T04:34:54;10.17;;;5.23;;
6626;SDS011;3349;49.830;8.748;2024-01-16T04:37:21;8.03;;;5.23;;
6626;SDS011;3349;49.830;8.748;2024-01-16T04:39:48;12.23;;;5.33;;
6626;SDS011;3349;49.830;8.748;2024-01-16T04:42:16;11.87;;;5.80;;
6626;SDS011;3349;49.830;8.748;2024-01-16T04:44:43;7.70;;;5.37;;
6626;SDS011;3349;49.830;8.748;2024-01-16T04:47:10;11.10;;;5.03;;
6626;SDS011;3349;49.830;8.748;2024-01-16T04:49:37;10.03;;;5.63;;
6626;SDS011;3349;49.830;8.748;2024-01-16T04:52:04;12.47;;;5.93;;
6626;SDS011;3349;49.830;8.748;2024-01-16T04:54:31;9.13;;;5.37;;
6626;SDS011;3349;49.830;8.748;2024-01-16T04:56:57;9.27;;;5.17;;
6626;SDS011;3349;49.830;8.748;2024-01-16T04:59:25;14.07;;;5.90;;
6626;SDS011;3349;49.830;8.748;2024-01-16T05:01:52;15.00;;;5.60;;
6626;SDS011;3349;49.830;8.748;2024-01-16T05:04:19;10.37;;;5.93;;
6626;SDS011;3349;49.830;8.748;2024-01-16T05:06:49;8.77;;;6.07;;
6626;SDS011;3349;49.830;8.748;2024-01-16T05:09:16;10.60;;;5.83;;
6626;SDS011;3349;49.830;8.748;2024-01-16T05:11:44;10.80;;;6.10;;
6626;SDS011;3349;49.830;8.748;2024-01-16T05:14:11;13.67;;;6.03;;
6626;SDS011;3349;49.830;8.748;2024-01-16T05:16:39;11.07;;;5.27;;
6626;SDS011;3349;49.830;8.748;2024-01-16T05:19:05;10.33;;;5.93;;
6626;SDS011;3349;49.830;8.748;2024-01-16T05:21:32;11.40;;;7.17;;
6626;SDS011;3349;49.830;8.748;2024-01-16T05:23:59;10.47;;;6.10;;
6626;SDS011;3349;49.830;8.748;2024-01-16T05:26:25;9.27;;;5.60;;
6626;SDS011;3349;49.830;8.748;2024-01-16T05:28:52;17.63;;;5.77;;
6626;SDS011;3349;49.830;8.748;2024-01-16T05:31:19;11.00;;;5.53;;
6626;SDS011;3349;49.830;8.748;2024-01-16T05:33:47;11.33;;;5.63;;
6626;SDS011;3349;49.830;8.748;2024-01-16T05:36:13;9.07;;;5.10;;
6626;SDS011;3349;49.830;8.748;2024-01-16T05:38:40;7.80;;;4.90;;
6626;SDS011;3349;49.830;8.748;2024-01-16T05:41:07;7.50;;;5.07;;
6626;SDS011;3349;49.830;8.748;2024-01-16T05:43:34;9.27;;;5.50;;
6626;SDS011;3349;49.830;8.748;2024-01-16T05:46:00;10.40;;;5.30;;
6626;SDS011;3349;49.830;8.748;2024-01-16T05:48:27;10.83;;;5.70;;
6626;SDS011;3349;49.830;8.748;2024-01-16T05:50:55;12.97;;;5.63;;
6626;SDS011;3349;49.830;8.748;2024-01-16T05:53:22;11.97;;;6.07;;
6626;SDS011;3349;49.830;8.748;2024-01-16T05:55:48;19.30;;;6.23;;
6626;SDS011;3349;49.830;8.748;2024-01-16T05:58:15;10.63;;;6.23;;
6626;SDS011;3349;49.830;8.748;2024-01-16T06:00:42;12.23;;;5.93;;
6626;SDS011;3349;49.830;8.748;2024-01-16T06:03:08;12.23;;;6.17;;
6626;SDS011;3349;49.830;8.748;2024-01-16T06:05:35;11.50;;;5.77;;
6626;SDS011;3349;49.830;8.748;2024-01-16T06:08:03;16.57;;;7.33;;
6626;SDS011;3349;49.830;8.748;2024-01-16T06:10:30;15.43;;;7.47;;
6626;SDS011;3349;49.830;8.748;2024-01-16T06:12:57;13.03;;;6.83;;
6626;SDS011;3349;49.830;8.748;2024-01-16T06:15:24;13.03;;;6.40;;
6626;SDS011;3349;49.830;8.748;2024-01-16T06:17:50;13.27;;;6.73;;
6626;SDS011;3349;49.830;8.748;2024-01-16T06:20:17;11.40;;;6.60;;
6626;SDS011;3349;49.830;8.748;2024-01-16T06:22:45;12.07;;;6.93;;
6626;SDS011;3349;49.830;8.748;2024-01-16T06:25:13;15.57;;;7.40;;
6626;SDS011;3349;49.830;8.748;2024-01-16T06:27:40;15.77;;;7.77;;
6626;SDS011;3349;49.830;8.748;2024-01-16T06:30:07;13.67;;;7.73;;
6626;SDS011;3349;49.830;8.748;2024-01-16T06:32:35;15.87;;;7.73;;
6626;SDS011;3349;49.830;8.748;2024-01-16T06:35:01;16.53;;;7.80;;
6626;SDS011;3349;49.830;8.748;2024-01-16T06:37:28;15.43;;;8.00;;
6626;SDS011;3349;49.830;8.748;2024-01-16T06:39:55;12.63;;;7.50;;
6626;SDS011;3349;49.830;8.748;2024-01-16T06:42:23;14.47;;;7.03;;
6626;SDS011;3349;49.830;8.748;2024-01-16T06:44:49;10.93;;;7.00;;
6626;SDS011;3349;49.830;8.748;2024-01-16T06:47:16;11.90;;;7.23;;
6626;SDS011;3349;49.830;8.748;2024-01-16T06:49:42;17.33;;;8.33;;
6626;SDS011;3349;49.830;8.748;2024-01-16T06:52:09;16.40;;;7.93;;
6626;SDS011;3349;49.830;8.748;2024-01-16T06:54:36;9.47;;;6.30;;
6626;SDS011;3349;49.830;8.748;2024-01-16T06:57:02;11.67;;;6.07;;
6626;SDS011;3349;49.830;8.748;2024-01-16T06:59:31;11.77;;;6.30;;
6626;SDS011;3349;49.830;8.748;2024-01-16T07:01:58;11.40;;;6.17;;
6626;SDS011;3349;49.830;8.748;2024-01-16T07:04:24;11.40;;;6.20;;
6626;SDS011;3349;49.830;8.748;2024-01-16T07:06:51;15.00;;;5.70;;
6626;SDS011;3349;49.830;8.748;2024-01-16T07:09:18;12.17;;;6.40;;
6626;SDS011;3349;49.830;8.748;2024-01-16T07:11:45;12.57;;;6.70;;
6626;SDS011;3349;49.830;8.748;2024-01-16T07:14:12;11.30;;;6.70;;
6626;SDS011;3349;49.830;8.748;2024-01-16T07:16:40;11.33;;;6.30;;
6626;SDS011;3349;49.830;8.748;2024-01-16T07:19:08;11.33;;;5.47;;
6626;SDS011;3349;49.830;8.748;2024-01-16T07:21:34;14.67;;;5.80;;
6626;SDS011;3349;49.830;8.748;2024-01-16T07:24:01;8.97;;;6.37;;
6626;SDS011;3349;49.830;8.748;2024-01-16T07:26:28;13.37;;;7.00;;
6626;SDS011;3349;49.830;8.748;2024-01-16T07:28:55;12.37;;;6.83;;
6626;SDS011;3349;49.830;8.748;2024-01-16T07:31:22;12.23;;;6.37;;
6626;SDS011;3349;49.830;8.748;2024-01-16T07:33:50;13.35;;;7.90;;
6626;SDS011;3349;49.830;8.748;2024-01-16T07:36:17;9.07;;;5.67;;
6626;SDS011;3349;49.830;8.748;2024-01-16T07:38:43;10.20;;;6.07;;
6626;SDS011;3349;49.830;8.748;2024-01-16T07:41:10;11.77;;;6.40;;
6626;SDS011;3349;49.830;8.748;2024-01-16T07:43:37;11.23;;;5.70;;
6626;SDS011;3349;49.830;8.748;2024-01-16T07:46:03;13.97;;;6.20;;
6626;SDS011;3349;49.830;8.748;2024-01-16T07:48:30;13.20;;;6.17;;
6626;SDS011;3349;49.830;8.748;2024-01-16T07:50:58;8.47;;;5.67;;
6626;SDS011;3349;49.830;8.748;2024-01-16T07:53:25;9.57;;;5.57;;
6626;SDS011;3349;49.830;8.748;2024-01-16T07:55:52;9.60;;;5.53;;
6626;SDS011;3349;49.830;8.748;2024-01-16T07:58:19;11.53;;;5.23;;
6626;SDS011;3349;49.830;8.748;2024-01-16T08:00:47;10.30;;;5.53;;
6626;SDS011;3349;49.830;8.748;2024-01-16T08:03:13;13.03;;;5.00;;
6626;SDS011;3349;49.830;8.748;2024-01-16T08:05:40;8.33;;;4.30;;
6626;SDS011;3349;49.830;8.748;2024-01-16T08:08:09;9.30;;;4.33;;
6626;SDS011;3349;49.830;8.748;2024-01-16T08:10:35;8.40;;;4.83;;
6626;SDS011;3349;49.830;8.748;2024-01-16T08:13:02;8.83;;;4.50;;
6626;SDS011;3349;49.830;8.748;2024-01-16T08:15:29;9.17;;;4.83;;
6626;SDS011;3349;49.830;8.748;2024-01-16T08:17:56;8.30;;;4.63;;
6626;SDS011;3349;49.830;8.748;2024-01-16T08:20:22;5.87;;;4.43;;
6626;SDS011;3349;49.830;8.748;2024-01-16T08:22:49;13.93;;;4.83;;
6626;SDS011;3349;49.830;8.748;2024-01-16T08:25:17;7.90;;;4.03;;
6626;SDS011;3349;49.830;8.748;2024-01-16T08:27:44;13.60;;;6.13;;
6626;SDS011;3349;49.830;8.748;2024-01-16T08:30:11;11.37;;;5.47;;
6626;SDS011;3349;49.830;8.748;2024-01-16T08:32:38;9.43;;;5.37;;
6626;SDS011;3349;49.830;8.748;2024-01-16T08:35:05;9.20;;;5.20;;
6626;SDS011;3349;49.830;8.748;2024-01-16T08:37:33;9.10;;;4.10;;
6626;SDS011;3349;49.830;8.748;2024-01-16T08:40:00;7.80;;;4.03;;
6626;SDS011;3349;49.830;8.748;2024-01-16T08:42:29;11.07;;;4.57;;
6626;SDS011;3349;49.830;8.748;2024-01-16T08:44:56;10.77;;;5.10;;
6626;SDS011;3349;49.830;8.748;2024-01-16T08:47:23;9.83;;;5.27;;
6626;SDS011;3349;49.830;8.748;2024-01-16T08:49:49;11.83;;;5.30;;
6626;SDS011;3349;49.830;8.748;2024-01-16T08:52:16;12.03;;;5.23;;
6626;SDS011;3349;49.830;8.748;2024-01-16T08:54:43;9.57;;;5.00;;
6626;SDS011;3349;49.830;8.748;2024-01-16T08:57:09;8.60;;;4.37;;
6626;SDS011;3349;49.830;8.748;2024-01-16T08:59:39;8.40;;;4.57;;
6626;SDS011;3349;49.830;8.748;2024-01-16T09:02:06;10.73;;;4.90;;
6626;SDS011;3349;49.830;8.748;2024-01-16T09:04:33;12.37;;;4.63;;
6626;SDS011;3349;49.830;8.748;2024-01-16T09:07:00;16.30;;;4.67;;
6626;SDS011;3349;49.830;8.748;2024-01-16T09:09:29;8.27;;;3.97;;
6626;SDS011;3349;49.830;8.748;2024-01-16T09:11:56;7.10;;;4.73;;
6626;SDS011;3349;49.830;8.748;2024-01-16T09:14:23;8.63;;;4.23;;
6626;SDS011;3349;49.830;8.748;2024-01-16T09:16:51;10.17;;;4.93;;
6626;SDS011;3349;49.830;8.748;2024-01-16T09:19:19;7.87;;;4.20;;
6626;SDS011;3349;49.830;8.748;2024-01-16T09:21:45;8.53;;;4.87;;
6626;SDS011;3349;49.830;8.748;2024-01-16T09:24:12;9.23;;;4.33;;
6626;SDS011;3349;49.830;8.748;2024-01-16T09:26:39;8.80;;;4.57;;
6626;SDS011;3349;49.830;8.748;2024-01-16T09:29:05;7.23;;;3.83;;
6626;SDS011;3349;49.830;8.748;2024-01-16T09:31:33;10.83;;;4.70;;
6626;SDS011;3349;49.830;8.748;2024-01-16T09:34:02;12.37;;;4.30;;
6626;SDS011;3349;49.830;8.748;2024-01-16T09:36:28;10.97;;;4.67;;
6626;SDS011;3349;49.830;8.748;2024-01-16T09:38:55;11.03;;;4.63;;
6626;SDS011;3349;49.830;8.748;2024-01-16T09:41:22;6.63;;;4.47;;
6626;SDS011;3349;49.830;8.748;2024-01-16T09:43:49;7.13;;;4.50;;
6626;SDS011;3349;49.830;8.748;2024-01-16T09:46:17;9.23;;;4.17;;
6626;SDS011;3349;49.830;8.748;2024-01-16T09:48:45;8.97;;;4.07;;
6626;SDS011;3349;49.830;8.748;2024-01-16T09:51:15;9.37;;;4.70;;
6626;SDS011;3349;49.830;8.748;2024-01-16T09:53:42;9.33;;;4.30;;
6626;SDS011;3349;49.830;8.748;2024-01-16T09:56:09;8.63;;;4.23;;
6626;SDS011;3349;49.830;8.748;2024-01-16T09:58:40;5.87;;;3.60;;
6626;SDS011;3349;49.830;8.748;2024-01-16T10:01:08;7.50;;;4.00;;
6626;SDS011;3349;49.830;8.748;2024-01-16T10:03:37;6.90;;;4.20;;
6626;SDS011;3349;49.830;8.748;2024-01-16T10:06:04;11.20;;;3.83;;
6626;SDS011;3349;49.830;8.748;2024-01-16T10:08:34;8.70;;;4.47;;
6626;SDS011;3349;49.830;8.748;2024-01-16T10:11:00;8.97;;;5.10;;
6626;SDS011;3349;49.830;8.748;2024-01-16T10:13:27;8.00;;;3.90;;
6626;SDS011;3349;49.830;8.748;2024-01-16T10:15:55;9.83;;;3.67;;
6626;SDS011;3349;49.830;8.748;2024-01-16T10:18:23;14.53;;;4.83;;
6626;SDS011;3349;49.830;8.748;2024-01-16T10:20:50;9.13;;;4.00;;
6626;SDS011;3349;49.830;8.748;2024-01-16T10:23:21;7.23;;;3.50;;
6626;SDS011;3349;49.830;8.748;2024-01-16T10:25:58;8.63;;;3.90;;
6626;SDS011;3349;49.830;8.748;2024-01-16T10:28:31;11.00;;;4.33;;
6626;SDS011;3349;49.830;8.748;2024-01-16T10:31:01;9.47;;;4.33;;
6626;SDS011;3349;49.830;8.748;2024-01-16T10:33:28;8.33;;;3.80;;
6626;SDS011;3349;49.830;8.748;2024-01-16T10:36:02;14.03;;;4.10;;
6626;SDS011;3349;49.830;8.748;2024-01-16T10:38:37;7.73;;;3.80;;
6626;SDS011;3349;49.830;8.748;2024-01-16T10:41:06;11.77;;;3.97;;
6626;SDS011;3349;49.830;8.748;2024-01-16T10:43:34;7.80;;;3.53;;
6626;SDS011;3349;49.830;8.748;2024-01-16T10:46:08;9.20;;;3.87;;
6626;SDS011;3349;49.830;8.748;2024-01-16T10:48:37;8.48;;;3.70;;
6626;SDS011;3349;49.830;8.748;2024-01-16T10:51:05;8.30;;;3.87;;
6626;SDS011;3349;49.830;8.748;2024-01-16T10:53:33;9.93;;;3.50;;
6626;SDS011;3349;49.830;8.748;2024-01-16T10:56:01;7.13;;;3.60;;
6626;SDS011;3349;49.830;8.748;2024-01-16T10:58:30;11.90;;;5.00;;
6626;SDS011;3349;49.830;8.748;2024-01-16T11:00:57;6.60;;;4.30;;
6626;SDS011;3349;49.830;8.748;2024-01-16T11:03:29;11.07;;;4.23;;
6626;SDS011;3349;49.830;8.748;2024-01-16T11:06:01;14.43;;;4.33;;
6626;SDS011;3349;49.830;8.748;2024-01-16T11:08:32;8.13;;;4.43;;
6626;SDS011;3349;49.830;8.748;2024-01-16T11:11:01;7.87;;;4.03;;
6626;SDS011;3349;49.830;8.748;2024-01-16T11:13:30;7.67;;;3.43;;
6626;SDS011;3349;49.830;8.748;2024-01-16T11:15:58;7.32;;;3.80;;
6626;SDS011;3349;49.830;8.748;2024-01-16T11:18:26;7.80;;;3.80;;
6626;SDS011;3349;49.830;8.748;2024-01-16T11:20:55;7.07;;;3.45;;
6626;SDS011;3349;49.830;8.748;2024-01-16T11:23:23;8.45;;;3.45;;
6626;SDS011;3349;49.830;8.748;2024-01-16T11:25:50;12.10;;;4.53;;
6626;SDS011;3349;49.830;8.748;2024-01-16T11:28:17;12.30;;;3.72;;
6626;SDS011;3349;49.830;8.748;2024-01-16T11:30:46;6.40;;;3.55;;
6626;SDS011;3349;49.830;8.748;2024-01-16T11:39:16;13.10;;;3.22;;
6626;SDS011;3349;49.830;8.748;2024-01-16T11:41:47;8.60;;;3.10;;
6626;SDS011;3349;49.830;8.748;2024-01-16T11:44:38;6.38;;;2.90;;
6626;SDS011;3349;49.830;8.748;2024-01-16T11:47:08;8.15;;;3.10;;
6626;SDS011;3349;49.830;8.748;2024-01-16T11:49:35;8.63;;;3.35;;
6626;SDS011;3349;49.830;8.748;2024-01-16T11:52:02;6.63;;;3.45;;
6626;SDS011;3349;49.830;8.748;2024-01-16T11:54:29;8.38;;;3.47;;
6626;SDS011;3349;49.830;8.748;2024-01-16T11:59:57;7.95;;;2.78;;
6626;SDS011;3349;49.830;8.748;2024-01-16T12:02:29;9.93;;;2.95;;
6626;SDS011;3349;49.830;8.748;2024-01-16T12:05:03;5.93;;;2.92;;
6626;SDS011;3349;49.830;8.748;2024-01-16T12:07:41;6.40;;;3.33;;
6626;SDS011;3349;49.830;8.748;2024-01-16T12:10:09;6.70;;;3.20;;
6626;SDS011;3349;49.830;8.748;2024-01-16T12:12:36;10.30;;;3.70;;
6626;SDS011;3349;49.830;8.748;2024-01-16T12:15:03;7.57;;;3.42;;
6626;SDS011;3349;49.830;8.748;2024-01-16T12:17:33;7.10;;;2.92;;
6626;SDS011;3349;49.830;8.748;2024-01-16T12:19:59;6.00;;;2.90;;
6626;SDS011;3349;49.830;8.748;2024-01-16T12:22:26;7.15;;;2.90;;
6626;SDS011;3349;49.830;8.748;2024-01-16T12:24:55;7.97;;;3.47;;
6626;SDS011;3349;49.830;8.748;2024-01-16T12:27:23;9.60;;;3.28;;
6626;SDS011;3349;49.830;8.748;2024-01-16T12:30:03;6.85;;;3.10;;
6626;SDS011;3349;49.830;8.748;2024-01-16T12:32:33;9.15;;;3.60;;
6626;SDS011;3349;49.830;8.748;2024-01-16T12:35:00;6.13;;;3.42;;
6626;SDS011;3349;49.830;8.748;2024-01-16T12:37:27;7.43;;;3.35;;
6626;SDS011;3349;49.830;8.748;2024-01-16T12:39:54;8.60;;;3.33;;
6626;SDS011;3349;49.830;8.748;2024-01-16T12:42:22;5.93;;;3.38;;
6626;SDS011;3349;49.830;8.748;2024-01-16T12:44:49;7.15;;;3.75;;
6626;SDS011;3349;49.830;8.748;2024-01-16T12:47:16;7.63;;;3.85;;
6626;SDS011;3349;49.830;8.748;2024-01-16T12:49:45;7.55;;;3.80;;
6626;SDS011;3349;49.830;8.748;2024-01-16T12:52:18;8.80;;;4.22;;
6626;SDS011;3349;49.830;8.748;2024-01-16T12:54:46;5.75;;;3.40;;
6626;SDS011;3349;49.830;8.748;2024-01-16T12:57:17;5.82;;;2.97;;
6626;SDS011;3349;49.830;8.748;2024-01-16T12:59:44;8.65;;;2.80;;
6626;SDS011;3349;49.830;8.748;2024-01-16T13:02:19;8.30;;;3.30;;
6626;SDS011;3349;49.830;8.748;2024-01-16T13:04:48;6.93;;;3.10;;
6626;SDS011;3349;49.830;8.748;2024-01-16T13:07:23;6.85;;;3.35;;
6626;SDS011;3349;49.830;8.748;2024-01-16T13:09:50;6.05;;;2.70;;
6626;SDS011;3349;49.830;8.748;2024-01-16T13:12:31;11.60;;;3.53;;
6626;SDS011;3349;49.830;8.748;2024-01-16T13:14:58;6.35;;;3.22;;
6626;SDS011;3349;49.830;8.748;2024-01-16T13:17:25;8.30;;;4.13;;
6626;SDS011;3349;49.830;8.748;2024-01-16T13:19:53;6.28;;;2.67;;
6626;SDS011;3349;49.830;8.748;2024-01-16T13:22:20;8.40;;;3.60;;
6626;SDS011;3349;49.830;8.748;2024-01-16T13:24:47;10.35;;;3.53;;
6626;SDS011;3349;49.830;8.748;2024-01-16T13:27:13;8.38;;;3.28;;
6626;SDS011;3349;49.830;8.748;2024-01-16T13:29:40;5.93;;;3.60;;
6626;SDS011;3349;49.830;8.748;2024-01-16T13:32:07;10.77;;;4.47;;
6626;SDS011;3349;49.830;8.748;2024-01-16T13:34:33;9.63;;;4.47;;
6626;SDS011;3349;49.830;8.748;2024-01-16T13:37:01;7.03;;;4.32;;
6626;SDS011;3349;49.830;8.748;2024-01-16T13:39:30;11.02;;;6.10;;
6626;SDS011;3349;49.830;8.748;2024-01-16T13:42:01;7.63;;;4.80;;
6626;SDS011;3349;49.830;8.748;2024-01-16T13:44:30;8.50;;;4.85;;
6626;SDS011;3349;49.830;8.748;2024-01-16T13:46:57;14.57;;;5.93;;
6626;SDS011;3349;49.830;8.748;2024-01-16T13:49:24;9.45;;;4.43;;
6626;SDS011;3349;49.830;8.748;2024-01-16T13:51:50;8.25;;;3.80;;
6626;SDS011;3349;49.830;8.748;2024-01-16T13:54:18;9.57;;;3.50;;
6626;SDS011;3349;49.830;8.748;2024-01-16T13:56:45;8.57;;;3.38;;
6626;SDS011;3349;49.830;8.748;2024-01-16T13:59:12;6.65;;;3.20;;
6626;SDS011;3349;49.830;8.748;2024-01-16T14:01:39;6.60;;;3.78;;
6626;SDS011;3349;49.830;8.748;2024-01-16T14:04:05;10.57;;;3.67;;
6626;SDS011;3349;49.830;8.748;2024-01-16T14:06:32;8.43;;;3.58;;
6626;SDS011;3349;49.830;8.748;2024-01-16T14:08:59;7.25;;;3.42;;
6626;SDS011;3349;49.830;8.748;2024-01-16T14:11:27;7.35;;;3.70;;
6626;SDS011;3349;49.830;8.748;2024-01-16T14:13:54;6.55;;;2.92;;
6626;SDS011;3349;49.830;8.748;2024-01-16T14:16:22;6.53;;;3.17;;
6626;SDS011;3349;49.830;8.748;2024-01-16T14:18:48;11.10;;;4.27;;
6626;SDS011;3349;49.830;8.748;2024-01-16T14:21:15;7.83;;;3.33;;
6626;SDS011;3349;49.830;8.748;2024-01-16T14:23:42;7.50;;;4.03;;
6626;SDS011;3349;49.830;8.748;2024-01-16T14:26:08;14.50;;;5.67;;
6626;SDS011;3349;49.830;8.748;2024-01-16T14:28:36;15.70;;;6.33;;
6626;SDS011;3349;49.830;8.748;2024-01-16T14:31:03;7.97;;;3.97;;
6626;SDS011;3349;49.830;8.748;2024-01-16T14:33:30;12.93;;;4.80;;
6626;SDS011;3349;49.830;8.748;2024-01-16T14:35:57;13.53;;;5.30;;
6626;SDS011;3349;49.830;8.748;2024-01-16T14:38:24;7.90;;;4.23;;
6626;SDS011;3349;49.830;8.748;2024-01-16T14:40:50;13.27;;;5.50;;
6626;SDS011;3349;49.830;8.748;2024-01-16T14:43:20;11.53;;;5.30;;
6626;SDS011;3349;49.830;8.748;2024-01-16T14:45:49;13.83;;;5.60;;
6626;SDS011;3349;49.830;8.748;2024-01-16T14:48:15;10.13;;;5.13;;
6626;SDS011;3349;49.830;8.748;2024-01-16T14:50:42;13.80;;;6.60;;
6626;SDS011;3349;49.830;8.748;2024-01-16T14:53:09;15.87;;;7.17;;
6626;SDS011;3349;49.830;8.748;2024-01-16T14:55:35;12.93;;;5.67;;
6626;SDS011;3349;49.830;8.748;2024-01-16T14:58:02;13.47;;;6.00;;
6626;SDS011;3349;49.830;8.748;2024-01-16T15:00:29;13.13;;;6.93;;
6626;SDS011;3349;49.830;8.748;2024-01-16T15:02:59;13.33;;;5.90;;
6626;SDS011;3349;49.830;8.748;2024-01-16T15:05:25;9.17;;;5.43;;
6626;SDS011;3349;49.830;8.748;2024-01-16T15:07:52;11.90;;;5.33;;
6626;SDS011;3349;49.830;8.748;2024-01-16T15:10:19;13.57;;;5.93;;
6626;SDS011;3349;49.830;8.748;2024-01-16T15:12:47;14.00;;;5.33;;
6626;SDS011;3349;49.830;8.748;2024-01-16T15:15:14;11.97;;;5.57;;
6626;SDS011;3349;49.830;8.748;2024-01-16T15:17:41;11.23;;;5.70;;
6626;SDS011;3349;49.830;8.748;2024-01-16T15:20:11;7.83;;;5.03;;
6626;SDS011;3349;49.830;8.748;2024-01-16T15:22:38;10.67;;;5.53;;